Time;durP1;ratioP1;P1;durP2;ratioP2;P2;SDS_P1;SDS_P2;PMS_P1;PMS_P2;Temp;Humidity;BMP_temperature;BMP_pressure;BME280_temperature;BME280_humidity;BME280_pressure;Samples;Min_cycle;Max_cycle;Signal;HPM_P1;HPM_P2
2022/11/15 00:00:00;;;;;;;;;;;;;;;4.41;100.00;100932.37;5590758;31;34288;-71
2022/11/15 00:03:24;;;;;;;;;;;;;;;4.33;100.00;100932.94;5590741;31;34252;-71
2022/11/15 00:06:47;;;;;;;;;;;;;;;4.34;100.00;100933.78;5576945;31;35218;-71
2022/11/15 00:10:12;;;;;;;;;;;;;;;4.30;100.00;100934.97;5590684;31;34701;-71
2022/11/15 00:13:36;;;;;;;;;;;;;;;4.20;100.00;100928.72;5590808;31;34908;-71
2022/11/15 00:16:59;;;;;;;;;;;;;;;4.22;100.00;100929.44;5590659;31;34195;-71
2022/11/15 00:20:26;;;;;;;;;;;;;;;4.34;100.00;100920.66;5590464;31;34466;-70
2022/11/15 00:23:49;;;;;;;;;;;;;;;4.30;100.00;100927.09;5576335;31;34750;-71
2022/11/15 00:27:11;;;;;;;;;;;;;;;4.39;100.00;100929.03;5590493;31;34883;-71
2022/11/15 00:30:36;;;;;;;;;;;;;;;4.30;100.00;100925.31;5590454;31;34649;-70
2022/11/15 00:33:58;;;;;;;;;;;;;;;4.24;100.00;100925.75;5590788;31;34301;-71
2022/11/15 00:37:20;;;;;;;;;;;;;;;4.15;100.00;100925.59;5590379;31;34892;-71
2022/11/15 00:40:45;;;;;;;;;;;;;;;4.27;100.00;100919.44;5590273;31;34974;-71
2022/11/15 00:44:10;;;;;;;;;;;;;;;4.22;100.00;100917.16;5590514;31;34234;-70
2022/11/15 00:47:34;;;;;;;;;;;;;;;4.27;100.00;100906.28;5590297;31;34346;-71
2022/11/15 00:50:59;;;;;;;;;;;;;;;4.25;100.00;100911.69;5590343;31;34208;-71
2022/11/15 00:54:23;;;;;;;;;;;;;;;4.31;100.00;100905.09;5590151;31;34432;-71
2022/11/15 00:57:48;;;;;;;;;;;;;;;4.26;100.00;100899.41;5590199;31;34360;-71
2022/11/15 01:01:14;;;;;;;;;;;;;;;4.33;100.00;100895.34;5576448;31;34393;-71
2022/11/15 01:04:38;;;;;;;;;;;;;;;4.43;100.00;100896.31;5590274;31;34587;-71
2022/11/15 01:08:04;;;;;;;;;;;;;;;4.38;100.00;100896.66;5575941;31;35728;-71
2022/11/15 01:11:27;;;;;;;;;;;;;;;4.35;100.00;100894.28;5590199;31;34075;-71
2022/11/15 01:14:51;;;;;;;;;;;;;;;4.38;100.00;100890.56;5551040;32;34863;-71
2022/11/15 01:18:16;;;;;;;;;;;;;;;4.29;100.00;100899.16;5550976;32;34928;-71
2022/11/15 01:21:41;;;;;;;;;;;;;;;4.22;100.00;100890.03;5550965;32;34634;-71
2022/11/15 01:25:06;;;;;;;;;;;;;;;4.18;100.00;100878.09;5550976;32;34303;-71
2022/11/15 01:28:31;;;;;;;;;;;;;;;4.21;100.00;100878.69;5550834;32;34905;-70
2022/11/15 01:31:55;;;;;;;;;;;;;;;4.26;100.00;100870.50;5550902;32;34977;-70
2022/11/15 01:35:22;;;;;;;;;;;;;;;4.29;100.00;100872.88;5550805;32;34197;-71
2022/11/15 01:38:47;;;;;;;;;;;;;;;4.28;100.00;100868.59;5550154;32;34311;-70
2022/11/15 01:42:15;;;;;;;;;;;;;;;4.33;100.00;100866.44;5550755;32;34487;-70
2022/11/15 01:45:41;;;;;;;;;;;;;;;4.19;100.00;100870.13;5549829;32;35327;-70
2022/11/15 01:49:15;;;;;;;;;;;;;;;4.30;100.00;100870.16;5550743;32;34346;-70
2022/11/15 01:52:42;;;;;;;;;;;;;;;4.22;100.00;100869.03;5550740;32;34962;-70
2022/11/15 01:56:08;;;;;;;;;;;;;;;4.20;100.00;100865.72;5550303;32;34728;-70
2022/11/15 01:59:31;;;;;;;;;;;;;;;4.12;100.00;100861.00;5550531;32;34697;-70
2022/11/15 02:02:56;;;;;;;;;;;;;;;4.13;100.00;100859.22;5549808;32;34321;-70
2022/11/15 02:06:22;;;;;;;;;;;;;;;4.17;100.00;100853.63;5550680;32;34301;-70
2022/11/15 02:09:49;;;;;;;;;;;;;;;4.21;100.00;100857.69;5550410;32;33966;-70
2022/11/15 02:13:14;;;;;;;;;;;;;;;4.24;100.00;100854.84;5573041;31;34866;-71
2022/11/15 02:17:00;;;;;;;;;;;;;;;4.28;100.00;100852.81;5578385;31;34373;-71
2022/11/15 02:20:39;;;;;;;;;;;;;;;4.35;100.00;100849.63;5588785;31;34173;-71
2022/11/15 02:24:17;;;;;;;;;;;;;;;4.32;100.00;100851.63;5589699;31;34194;-71
2022/11/15 02:28:02;;;;;;;;;;;;;;;4.36;100.00;100846.03;5577794;31;34955;-71
2022/11/15 02:31:35;;;;;;;;;;;;;;;4.41;100.00;100845.69;5589128;31;34850;-71
2022/11/15 02:35:07;;;;;;;;;;;;;;;4.41;100.00;100839.59;5589003;31;34410;-71
2022/11/15 02:38:34;;;;;;;;;;;;;;;4.34;100.00;100841.88;5574882;31;34414;-71
2022/11/15 02:42:03;;;;;;;;;;;;;;;4.37;100.00;100837.22;5574924;31;34202;-71
2022/11/15 02:45:31;;;;;;;;;;;;;;;4.55;100.00;100828.88;5577675;31;34878;-71
2022/11/15 02:48:55;;;;;;;;;;;;;;;4.53;100.00;100821.09;5588778;31;34785;-71
2022/11/15 02:52:22;;;;;;;;;;;;;;;4.54;100.00;100822.78;5588757;31;34242;-70
2022/11/15 02:55:49;;;;;;;;;;;;;;;4.59;100.00;100828.53;5577337;31;35096;-71
2022/11/15 02:59:19;;;;;;;;;;;;;;;4.58;100.00;100831.25;5575000;31;34947;-72
2022/11/15 03:02:42;;;;;;;;;;;;;;;4.59;100.00;100830.31;5588506;31;34729;-71
2022/11/15 03:06:15;;;;;;;;;;;;;;;4.50;100.00;100823.97;5588412;31;34308;-71
2022/11/15 03:09:52;;;;;;;;;;;;;;;4.68;100.00;100825.19;5588392;31;34259;-71
2022/11/15 03:13:22;;;;;;;;;;;;;;;4.78;100.00;100825.31;5576741;31;34941;-71
2022/11/15 03:16:53;;;;;;;;;;;;;;;4.65;100.00;100828.03;5588371;31;34289;-71
2022/11/15 03:20:19;;;;;;;;;;;;;;;4.48;100.00;100825.03;5588636;31;34776;-71
2022/11/15 03:23:44;;;;;;;;;;;;;;;4.56;100.00;100828.75;5588151;31;34841;-71
2022/11/15 03:27:11;;;;;;;;;;;;;;;4.56;100.00;100815.59;5576948;31;34892;-71
2022/11/15 03:30:41;;;;;;;;;;;;;;;4.59;100.00;100812.75;5588945;31;34267;-71
2022/11/15 03:34:09;;;;;;;;;;;;;;;4.52;100.00;100805.44;5590898;31;34732;-71
2022/11/15 03:37:45;;;;;;;;;;;;;;;4.56;100.00;100804.25;5591130;31;34155;-71
2022/11/15 03:41:30;;;;;;;;;;;;;;;4.69;100.00;100802.38;5591005;31;34229;-71
2022/11/15 03:45:00;;;;;;;;;;;;;;;4.60;100.00;100805.72;5590972;31;34211;-71
2022/11/15 03:48:30;;;;;;;;;;;;;;;4.67;100.00;100799.84;5590746;31;34976;-71
2022/11/15 03:51:56;;;;;;;;;;;;;;;4.66;100.00;100797.34;5590889;31;34039;-71
2022/11/15 03:55:21;;;;;;;;;;;;;;;4.51;100.00;100803.78;5590869;31;34218;-71
2022/11/15 03:58:42;;;;;;;;;;;;;;;4.56;100.00;100793.75;5576907;31;34634;-71
2022/11/15 04:02:08;;;;;;;;;;;;;;;4.75;100.00;100786.94;5579330;31;34806;-71
2022/11/15 04:05:32;;;;;;;;;;;;;;;4.66;100.00;100779.78;5590763;31;34287;-71
2022/11/15 04:08:57;;;;;;;;;;;;;;;4.72;100.00;100778.47;5590820;31;34810;-71
2022/11/15 04:12:32;;;;;;;;;;;;;;;4.77;100.00;100771.06;5590571;31;34887;-71
2022/11/15 04:15:58;;;;;;;;;;;;;;;4.66;100.00;100763.16;5579499;31;34160;-71
2022/11/15 04:26:50;;;;;;;;;;;;;;;4.68;100.00;100750.75;5590589;31;34700;-71
2022/11/15 04:30:17;;;;;;;;;;;;;;;4.67;100.00;100767.47;5590531;31;34837;-71
2022/11/15 04:33:41;;;;;;;;;;;;;;;4.70;100.00;100767.22;5565559;31;32738;-71
2022/11/15 04:37:11;;;;;;;;;;;;;;;4.68;100.00;100764.75;5590456;31;34619;-71
2022/11/15 04:40:39;;;;;;;;;;;;;;;4.58;100.00;100761.16;5576164;31;34319;-71
2022/11/15 04:44:03;;;;;;;;;;;;;;;4.55;100.00;100756.13;5590122;31;34325;-71
2022/11/15 04:47:29;;;;;;;;;;;;;;;4.75;100.00;100760.66;5590474;31;34390;-71
2022/11/15 04:50:56;;;;;;;;;;;;;;;4.57;100.00;100753.38;5590318;31;34235;-71
2022/11/15 04:54:20;;;;;;;;;;;;;;;4.68;100.00;100754.22;5590263;31;34968;-70
2022/11/15 04:57:44;;;;;;;;;;;;;;;4.74;100.00;100751.09;5590185;31;34450;-71
2022/11/15 05:01:14;;;;;;;;;;;;;;;4.71;100.00;100746.09;5590449;31;34845;-72
2022/11/15 05:04:39;;;;;;;;;;;;;;;4.68;100.00;100737.63;5590568;31;34414;-71
2022/11/15 05:08:03;;;;;;;;;;;;;;;4.57;100.00;100733.19;5576085;31;34499;-70
2022/11/15 05:11:28;;;;;;;;;;;;;;;4.64;100.00;100734.41;5590085;31;34903;-71
2022/11/15 05:14:52;;;;;;;;;;;;;;;4.67;100.00;100738.56;5590168;31;34504;-71
2022/11/15 05:18:18;;;;;;;;;;;;;;;4.72;100.00;100739.88;5590018;31;34245;-70
2022/11/15 05:21:45;;;;;;;;;;;;;;;4.73;100.00;100741.56;5590402;31;34648;-70
2022/11/15 05:25:10;;;;;;;;;;;;;;;4.82;100.00;100735.56;5590215;31;34875;-71
2022/11/15 05:28:34;;;;;;;;;;;;;;;4.80;100.00;100742.72;5576352;31;32897;-71
2022/11/15 05:32:00;;;;;;;;;;;;;;;4.90;100.00;100744.63;5589944;31;34398;-71
2022/11/15 05:35:34;;;;;;;;;;;;;;;4.82;100.00;100739.97;5589935;31;34220;-71
2022/11/15 05:38:58;;;;;;;;;;;;;;;4.88;100.00;100746.56;5565001;31;34781;-71
2022/11/15 05:42:22;;;;;;;;;;;;;;;5.01;100.00;100739.34;5589674;31;34348;-71
2022/11/15 05:45:46;;;;;;;;;;;;;;;4.95;100.00;100739.81;5589708;31;34315;-71
2022/11/15 05:49:12;;;;;;;;;;;;;;;5.06;100.00;100739.81;5589835;31;34290;-71
2022/11/15 05:52:37;;;;;;;;;;;;;;;4.97;100.00;100745.81;5588724;31;34378;-73
2022/11/15 05:56:00;;;;;;;;;;;;;;;4.97;100.00;100746.66;5589503;31;34723;-71
2022/11/15 05:59:21;;;;;;;;;;;;;;;5.10;100.00;100739.44;5589553;31;34533;-70
2022/11/15 06:02:43;;;;;;;;;;;;;;;5.15;100.00;100731.19;5589540;31;34678;-70
2022/11/15 06:06:05;;;;;;;;;;;;;;;5.08;100.00;100733.44;5575536;31;35609;-71
2022/11/15 06:09:26;;;;;;;;;;;;;;;5.10;100.00;100731.56;5589476;31;35008;-71
2022/11/15 06:12:55;;;;;;;;;;;;;;;5.05;100.00;100723.19;5589308;31;34906;-71
2022/11/15 06:16:16;;;;;;;;;;;;;;;5.04;100.00;100721.53;5577684;31;34294;-70
2022/11/15 06:19:38;;;;;;;;;;;;;;;5.11;100.00;100727.97;5575277;31;35141;-73
2022/11/15 06:23:01;;;;;;;;;;;;;;;5.18;100.00;100729.13;5589038;31;34896;-72
2022/11/15 06:26:23;;;;;;;;;;;;;;;5.34;100.00;100715.56;5589445;31;34766;-71
2022/11/15 06:29:46;;;;;;;;;;;;;;;5.44;100.00;100713.00;5588836;31;34903;-71
2022/11/15 06:33:08;;;;;;;;;;;;;;;5.33;100.00;100729.66;5564031;31;34222;-71
2022/11/15 06:36:30;;;;;;;;;;;;;;;5.55;100.00;100726.13;5588793;31;34833;-72
2022/11/15 06:39:51;;;;;;;;;;;;;;;5.50;100.00;100739.66;5563881;31;35603;-72
2022/11/15 06:43:12;;;;;;;;;;;;;;;5.53;100.00;100739.38;5588571;31;34892;-72
2022/11/15 06:46:33;;;;;;;;;;;;;;;5.62;100.00;100724.63;5588506;31;34409;-72
2022/11/15 06:49:55;;;;;;;;;;;;;;;5.39;100.00;100730.97;5588360;31;34354;-72
2022/11/15 06:53:16;;;;;;;;;;;;;;;5.50;100.00;100733.56;5574105;31;33249;-72
2022/11/15 06:56:38;;;;;;;;;;;;;;;5.49;100.00;100732.72;5563221;31;32884;-73
2022/11/15 07:00:01;;;;;;;;;;;;;;;5.43;100.00;100730.59;5587981;31;34891;-72
2022/11/15 07:03:23;;;;;;;;;;;;;;;5.47;100.00;100737.25;5588367;31;34399;-72
2022/11/15 07:06:47;;;;;;;;;;;;;;;5.49;100.00;100727.44;5579150;31;35019;-72
2022/11/15 07:10:09;;;;;;;;;;;;;;;5.57;100.00;100732.91;5591045;31;34673;-71
2022/11/15 07:13:35;;;;;;;;;;;;;;;5.53;100.00;100720.12;5591893;31;34424;-72
2022/11/15 07:16:57;;;;;;;;;;;;;;;5.51;100.00;100714.19;5590522;31;34254;-72
2022/11/15 07:20:20;;;;;;;;;;;;;;;5.57;100.00;100724.19;5590704;31;34295;-72
2022/11/15 07:23:42;;;;;;;;;;;;;;;5.70;100.00;100727.47;5590705;31;34831;-72
2022/11/15 07:27:03;;;;;;;;;;;;;;;5.85;100.00;100714.81;5576312;31;36367;-72
2022/11/15 07:30:25;;;;;;;;;;;;;;;5.71;100.00;100718.63;5589931;31;34260;-72
2022/11/15 07:33:47;;;;;;;;;;;;;;;5.81;100.00;100713.44;5578809;31;34184;-71
2022/11/15 07:37:08;;;;;;;;;;;;;;;5.95;100.00;100719.22;5590887;31;34607;-73
2022/11/15 07:40:31;;;;;;;;;;;;;;;5.85;100.00;100715.66;5590469;31;34930;-71
2022/11/15 07:43:52;;;;;;;;;;;;;;;5.92;100.00;100714.19;5590561;31;34965;-71
2022/11/15 07:47:14;;;;;;;;;;;;;;;6.02;100.00;100717.72;5578804;31;35076;-72
2022/11/15 07:50:41;;;;;;;;;;;;;;;6.02;100.00;100728.25;5576826;31;34293;-71
2022/11/15 07:54:02;;;;;;;;;;;;;;;6.17;100.00;100720.84;5590552;31;34326;-72
2022/11/15 07:57:23;;;;;;;;;;;;;;;6.16;100.00;100702.53;5590533;31;34855;-72
2022/11/15 08:00:44;;;;;;;;;;;;;;;6.18;100.00;100703.25;5590495;31;34904;-72
2022/11/15 08:04:06;;;;;;;;;;;;;;;6.19;100.00;100707.56;5590341;31;34372;-72
2022/11/15 08:07:31;;;;;;;;;;;;;;;6.28;100.00;100702.34;5565669;31;33607;-72
2022/11/15 08:10:53;;;;;;;;;;;;;;;6.35;100.00;100711.34;5576823;31;35069;-72
2022/11/15 08:14:15;;;;;;;;;;;;;;;6.32;100.00;100703.72;5590285;31;34896;-71
2022/11/15 08:17:37;;;;;;;;;;;;;;;6.36;100.00;100693.75;5564664;31;34549;-72
2022/11/15 08:21:01;;;;;;;;;;;;;;;6.35;100.00;100692.91;5576196;31;33776;-72
2022/11/15 08:24:23;;;;;;;;;;;;;;;6.70;100.00;100686.38;5589958;31;34355;-72
2022/11/15 08:27:44;;;;;;;;;;;;;;;6.80;100.00;100692.50;5576637;31;32778;-72
2022/11/15 08:31:07;;;;;;;;;;;;;;;6.82;100.00;100682.66;5576168;31;34651;-73
2022/11/15 08:34:28;;;;;;;;;;;;;;;6.67;100.00;100673.47;5590398;31;34928;-75
2022/11/15 08:37:52;;;;;;;;;;;;;;;6.46;100.00;100670.91;5590199;31;34832;-76
2022/11/15 08:41:24;;;;;;;;;;;;;;;6.40;100.00;100663.53;5576359;31;32784;-75
2022/11/15 08:44:47;;;;;;;;;;;;;;;6.31;100.00;100654.63;5577107;31;34415;-76
2022/11/15 08:48:09;;;;;;;;;;;;;;;6.23;100.00;100662.38;5589899;31;34889;-77
2022/11/15 08:51:31;;;;;;;;;;;;;;;6.32;100.00;100664.22;5590096;31;34317;-76
2022/11/15 08:54:53;;;;;;;;;;;;;;;6.51;100.00;100658.16;5589782;31;35029;-76
2022/11/15 08:58:15;;;;;;;;;;;;;;;6.35;100.00;100655.19;5590091;31;34825;-77
2022/11/15 09:01:38;;;;;;;;;;;;;;;6.17;100.00;100644.47;5590096;31;34292;-75
2022/11/15 09:04:59;;;;;;;;;;;;;;;6.27;100.00;100655.88;5576150;31;34335;-76
2022/11/15 09:08:20;;;;;;;;;;;;;;;6.26;100.00;100656.84;5576165;31;35021;-76
2022/11/15 09:12:01;;;;;;;;;;;;;;;6.37;100.00;100653.25;5589960;31;34994;-75
2022/11/15 09:15:22;;;;;;;;;;;;;;;6.51;100.00;100659.00;5590131;31;34833;-76
2022/11/15 09:18:44;;;;;;;;;;;;;;;6.53;100.00;100643.06;5576289;31;34523;-77
2022/11/15 09:22:07;;;;;;;;;;;;;;;6.50;100.00;100638.88;5576183;31;34371;-76
2022/11/15 09:25:29;;;;;;;;;;;;;;;6.67;100.00;100624.22;5578290;31;34818;-75
2022/11/15 09:28:51;;;;;;;;;;;;;;;6.83;100.00;100619.22;5588863;31;35061;-75
2022/11/15 09:32:13;;;;;;;;;;;;;;;7.08;100.00;100625.75;5576227;31;34661;-74
2022/11/15 09:35:34;;;;;;;;;;;;;;;7.23;100.00;100619.06;5589763;31;34762;-74
2022/11/15 09:38:57;;;;;;;;;;;;;;;7.05;100.00;100614.66;5589825;31;34372;-74
2022/11/15 09:42:48;;;;;;;;;;;;;;;7.17;100.00;100608.22;5575983;31;35030;-73
2022/11/15 09:46:18;;;;;;;;;;;;;;;7.19;100.00;100617.69;5570766;31;34937;-74
2022/11/15 09:49:26;;;;;;;;;;;;;;;7.09;100.00;100616.03;5575534;31;32847;-73
2022/11/15 09:52:30;;;;;;;;;;;;;;;7.00;100.00;100609.78;5589689;31;34015;-73
2022/11/15 09:55:37;;;;;;;;;;;;;;;7.02;100.00;100607.03;5575483;31;33874;-74
2022/11/15 09:58:45;;;;;;;;;;;;;;;7.03;100.00;100609.50;5575555;31;34213;-74
2022/11/15 10:01:55;;;;;;;;;;;;;;;7.07;100.00;100602.97;5589339;31;34494;-74
2022/11/15 10:05:00;;;;;;;;;;;;;;;6.86;100.00;100610.22;5589455;31;34913;-74
2022/11/15 10:08:12;;;;;;;;;;;;;;;6.85;100.00;100606.72;5589330;31;34292;-73
2022/11/15 10:11:19;;;;;;;;;;;;;;;6.90;100.00;100601.03;5589382;31;34378;-74
2022/11/15 10:14:40;;;;;;;;;;;;;;;6.81;100.00;100602.72;5589299;31;34909;-74
2022/11/15 10:18:03;;;;;;;;;;;;;;;6.77;100.00;100595.22;5562355;31;34271;-73
2022/11/15 10:21:21;;;;;;;;;;;;;;;6.85;100.00;100592.72;5562601;31;34705;-73
2022/11/15 10:24:29;;;;;;;;;;;;;;;6.81;100.00;100573.72;5588961;31;33668;-74
2022/11/15 10:27:33;;;;;;;;;;;;;;;6.92;100.00;100562.19;5575178;31;34301;-73
2022/11/15 10:30:42;;;;;;;;;;;;;;;6.95;100.00;100561.91;5588808;31;34881;-73
2022/11/15 10:33:45;;;;;;;;;;;;;;;7.03;100.00;100563.81;5574939;31;34228;-73
2022/11/15 10:36:56;;;;;;;;;;;;;;;6.91;100.00;100557.88;5588730;31;34227;-73
2022/11/15 10:40:03;;;;;;;;;;;;;;;7.03;100.00;100562.03;5589650;31;34800;-73
2022/11/15 10:43:11;;;;;;;;;;;;;;;7.03;100.00;100555.91;5591298;31;34230;-72
2022/11/15 10:46:22;;;;;;;;;;;;;;;7.02;100.00;100549.78;5591204;31;34137;-73
2022/11/15 10:49:53;;;;;;;;;;;;;;;7.18;100.00;100542.16;5566713;31;35353;-73
2022/11/15 10:52:58;;;;;;;;;;;;;;;7.04;100.00;100539.94;5591120;31;35076;-73
2022/11/15 10:56:06;;;;;;;;;;;;;;;7.20;100.00;100528.81;5564383;31;34251;-74
2022/11/15 10:59:15;;;;;;;;;;;;;;;7.44;100.00;100529.16;5590849;31;35022;-74
2022/11/15 11:02:28;;;;;;;;;;;;;;;7.40;100.00;100533.06;5577162;31;34247;-73
2022/11/15 11:05:33;;;;;;;;;;;;;;;7.57;100.00;100528.84;5591711;31;34660;-73
2022/11/15 11:09:00;;;;;;;;;;;;;;;7.57;100.00;100516.47;5591003;31;34654;-74
2022/11/15 11:12:05;;;;;;;;;;;;;;;7.65;100.00;100507.84;5590715;31;34862;-74
2022/11/15 11:15:11;;;;;;;;;;;;;;;7.62;100.00;100508.09;5591000;31;34484;-73
2022/11/15 11:18:22;;;;;;;;;;;;;;;7.62;100.00;100503.66;5590888;31;34935;-74
2022/11/15 11:21:30;;;;;;;;;;;;;;;7.78;100.00;100489.84;5590942;31;34200;-74
2022/11/15 11:24:53;;;;;;;;;;;;;;;7.88;100.00;100493.25;5590877;31;34869;-74
2022/11/15 11:27:57;;;;;;;;;;;;;;;8.10;100.00;100494.66;5564113;31;34223;-72
2022/11/15 11:31:10;;;;;;;;;;;;;;;8.05;100.00;100481.88;5576960;31;34173;-74
2022/11/15 11:34:33;;;;;;;;;;;;;;;7.99;100.00;100477.19;5576593;31;34429;-74
2022/11/15 11:37:47;;;;;;;;;;;;;;;7.61;100.00;100488.78;5589994;31;34508;-73
2022/11/15 11:40:54;;;;;;;;;;;;;;;7.68;100.00;100491.69;5590248;31;34922;-74
2022/11/15 11:44:06;;;;;;;;;;;;;;;7.74;100.00;100484.03;5577033;31;34243;-73
2022/11/15 11:47:10;;;;;;;;;;;;;;;7.71;100.00;100479.03;5590536;31;34803;-73
2022/11/15 11:50:15;;;;;;;;;;;;;;;7.63;100.00;100471.00;5576577;31;32945;-72
2022/11/15 11:53:25;;;;;;;;;;;;;;;7.47;100.00;100459.41;5576041;31;34290;-72
2022/11/15 11:56:36;;;;;;;;;;;;;;;7.49;100.00;100466.22;5576594;31;34428;-72
2022/11/15 11:59:43;;;;;;;;;;;;;;;7.50;100.00;100461.78;5576809;31;34401;-74
2022/11/15 12:02:48;;;;;;;;;;;;;;;7.34;100.00;100454.47;5590513;31;34906;-73
2022/11/15 12:06:05;;;;;;;;;;;;;;;7.23;100.00;100437.00;5590433;31;34398;-74
2022/11/15 12:09:16;;;;;;;;;;;;;;;7.28;100.00;100442.69;5590479;31;34927;-74
2022/11/15 12:12:32;;;;;;;;;;;;;;;7.38;100.00;100437.37;5590109;31;34372;-74
2022/11/15 12:15:47;;;;;;;;;;;;;;;7.52;100.00;100433.41;5590730;31;34221;-74
2022/11/15 12:18:53;;;;;;;;;;;;;;;7.58;100.00;100430.19;5590516;31;34222;-74
2022/11/15 12:22:12;;;;;;;;;;;;;;;7.74;100.00;100425.94;5590166;31;34382;-74
2022/11/15 12:25:18;;;;;;;;;;;;;;;7.55;100.00;100427.84;5590469;31;34330;-74
2022/11/15 12:28:32;;;;;;;;;;;;;;;7.54;100.00;100407.69;5590501;31;34863;-73
2022/11/15 12:31:36;;;;;;;;;;;;;;;7.70;100.00;100413.97;5576229;31;34565;-73
2022/11/15 12:34:49;;;;;;;;;;;;;;;7.71;100.00;100409.53;5590057;31;34964;-72
2022/11/15 12:37:55;;;;;;;;;;;;;;;7.74;100.00;100404.81;5590085;31;34804;-73
2022/11/15 12:41:12;;;;;;;;;;;;;;;7.55;100.00;100404.09;5576512;31;35901;-73
2022/11/15 12:44:30;;;;;;;;;;;;;;;7.47;100.00;100403.97;5590037;31;34358;-73
2022/11/15 12:47:33;;;;;;;;;;;;;;;7.53;100.00;100406.87;5576051;31;32956;-74
2022/11/15 12:50:54;;;;;;;;;;;;;;;7.52;100.00;100401.72;5576002;31;34538;-73
2022/11/15 12:53:58;;;;;;;;;;;;;;;7.53;100.00;100390.19;5590303;31;34762;-73
2022/11/15 12:57:07;;;;;;;;;;;;;;;7.60;100.00;100388.63;5590261;31;34322;-74
2022/11/15 13:00:13;;;;;;;;;;;;;;;7.58;100.00;100385.31;5576288;31;35270;-74
2022/11/15 13:03:18;;;;;;;;;;;;;;;7.37;100.00;100381.09;5589839;31;34452;-74
2022/11/15 13:06:40;;;;;;;;;;;;;;;7.52;100.00;100372.69;5576349;31;34986;-74
2022/11/15 13:09:46;;;;;;;;;;;;;;;7.55;100.00;100375.06;5576112;31;34501;-75
2022/11/15 13:12:51;;;;;;;;;;;;;;;7.25;100.00;100371.75;5563216;31;34479;-75
2022/11/15 13:16:01;;;;;;;;;;;;;;;7.21;100.00;100375.63;5590152;31;34173;-77
2022/11/15 13:19:04;;;;;;;;;;;;;;;7.28;100.00;100374.06;5576211;31;34599;-76
2022/11/15 13:25:38;;;;;;;;;;;;;;;7.28;100.00;100371.44;5590032;31;34693;-78
2022/11/15 13:28:48;;;;;;;;;;;;;;;7.27;100.00;100380.31;5575873;31;35596;-75
2022/11/15 13:31:52;;;;;;;;;;;;;;;7.09;100.00;100371.53;5589934;31;34907;-75
2022/11/15 13:35:00;;;;;;;;;;;;;;;7.06;100.00;100373.63;5589844;31;34799;-75
2022/11/15 13:38:04;;;;;;;;;;;;;;;7.06;100.00;100361.28;5578056;31;35131;-74
2022/11/15 13:41:18;;;;;;;;;;;;;;;7.07;100.00;100360.28;5589885;31;34729;-75
2022/11/15 13:44:23;;;;;;;;;;;;;;;7.11;100.00;100366.94;5575459;31;34657;-73
2022/11/15 13:47:29;;;;;;;;;;;;;;;7.06;100.00;100360.44;5575597;31;35119;-74
2022/11/15 13:50:35;;;;;;;;;;;;;;;7.16;100.00;100350.69;5562938;31;33589;-73
2022/11/15 13:53:43;;;;;;;;;;;;;;;7.17;100.00;100349.69;5575589;31;34733;-73
2022/11/15 13:56:50;;;;;;;;;;;;;;;7.07;100.00;100351.56;5589700;31;34243;-74
2022/11/15 13:59:59;;;;;;;;;;;;;;;7.06;100.00;100334.91;5589448;31;34930;-76
2022/11/15 14:03:14;;;;;;;;;;;;;;;7.28;100.00;100325.75;5575633;31;33769;-74
2022/11/15 14:06:20;;;;;;;;;;;;;;;7.14;100.00;100321.81;5589463;31;34926;-74
2022/11/15 14:09:24;;;;;;;;;;;;;;;6.94;100.00;100317.59;5575710;31;34289;-75
2022/11/15 14:12:29;;;;;;;;;;;;;;;6.86;100.00;100323.59;5575382;31;34666;-74
2022/11/15 14:15:35;;;;;;;;;;;;;;;6.92;100.00;100315.09;5574838;31;34359;-74
2022/11/15 14:18:44;;;;;;;;;;;;;;;6.91;100.00;100317.91;5575649;31;34572;-74
2022/11/15 14:22:06;;;;;;;;;;;;;;;6.82;100.00;100316.13;5589062;31;34851;-73
2022/11/15 14:25:12;;;;;;;;;;;;;;;6.70;100.00;100315.47;5589118;31;34962;-74
2022/11/15 14:28:22;;;;;;;;;;;;;;;6.61;100.00;100318.16;5589339;31;34745;-72
2022/11/15 14:31:26;;;;;;;;;;;;;;;6.70;100.00;100319.91;5589123;31;34809;-73
2022/11/15 14:34:31;;;;;;;;;;;;;;;6.80;100.00;100311.00;5589047;31;34552;-73
2022/11/15 14:37:38;;;;;;;;;;;;;;;6.79;100.00;100301.41;5575251;31;34306;-73
2022/11/15 14:40:43;;;;;;;;;;;;;;;6.68;100.00;100304.22;5588816;31;34935;-73
2022/11/15 14:43:47;;;;;;;;;;;;;;;6.60;100.00;100295.38;5588943;31;34688;-74
2022/11/15 14:46:50;;;;;;;;;;;;;;;6.58;100.00;100297.34;5588235;31;34425;-72
2022/11/15 14:49:54;;;;;;;;;;;;;;;6.58;100.00;100294.72;5588338;31;34316;-72
2022/11/15 14:52:58;;;;;;;;;;;;;;;6.63;100.00;100293.31;5588163;31;34226;-73
2022/11/15 14:56:01;;;;;;;;;;;;;;;6.64;100.00;100273.03;5588317;31;34669;-74
2022/11/15 14:59:05;;;;;;;;;;;;;;;6.67;100.00;100267.50;5587830;31;34704;-72
2022/11/15 15:02:22;;;;;;;;;;;;;;;6.64;100.00;100267.75;5574277;31;35190;-72
2022/11/15 15:05:30;;;;;;;;;;;;;;;6.66;100.00;100276.38;5574018;31;34595;-72
2022/11/15 15:08:33;;;;;;;;;;;;;;;6.58;100.00;100271.00;5574321;31;34799;-72
2022/11/15 15:11:36;;;;;;;;;;;;;;;6.59;100.00;100277.91;5587713;31;34458;-72
2022/11/15 15:14:40;;;;;;;;;;;;;;;6.57;100.00;100269.34;5587697;31;34615;-72
2022/11/15 15:17:45;;;;;;;;;;;;;;;6.60;100.00;100276.94;5587460;31;34598;-73
2022/11/15 15:20:55;;;;;;;;;;;;;;;6.62;100.00;100267.94;5573663;31;33706;-73
2022/11/15 15:24:00;;;;;;;;;;;;;;;6.60;100.00;100267.22;5587761;31;34605;-73
2022/11/15 15:27:05;;;;;;;;;;;;;;;6.67;100.00;100259.59;5562331;31;33688;-73
2022/11/15 15:30:08;;;;;;;;;;;;;;;6.61;100.00;100268.06;5576171;31;35179;-73
2022/11/15 15:33:13;;;;;;;;;;;;;;;6.57;100.00;100257.00;5590608;31;34699;-73
2022/11/15 15:36:18;;;;;;;;;;;;;;;6.50;100.00;100246.19;5576285;31;34684;-73
2022/11/15 15:39:21;;;;;;;;;;;;;;;6.48;100.00;100242.06;5576688;31;35964;-73
2022/11/15 15:42:23;;;;;;;;;;;;;;;6.55;100.00;100257.13;5576467;31;32867;-73
2022/11/15 15:45:27;;;;;;;;;;;;;;;6.53;100.00;100260.91;5576948;31;35102;-74
2022/11/15 15:48:33;;;;;;;;;;;;;;;6.50;100.00;100262.00;5576563;31;35142;-73
2022/11/15 15:51:38;;;;;;;;;;;;;;;6.46;100.00;100252.72;5590681;31;34835;-73
2022/11/15 15:54:42;;;;;;;;;;;;;;;6.57;100.00;100253.53;5590444;31;34264;-73
2022/11/15 15:57:46;;;;;;;;;;;;;;;6.50;100.00;100256.72;5590059;31;34851;-73
2022/11/15 16:00:51;;;;;;;;;;;;;;;6.53;100.00;100253.00;5575857;31;36576;-73
2022/11/15 16:03:55;;;;;;;;;;;;;;;6.52;100.00;100246.87;5590218;31;34672;-73
2022/11/15 16:07:02;;;;;;;;;;;;;;;6.54;100.00;100257.25;5590502;31;34810;-72
2022/11/15 16:10:24;;;;;;;;;;;;;;;6.58;100.00;100248.13;5590308;31;34277;-73
2022/11/15 16:13:29;;;;;;;;;;;;;;;6.59;100.00;100244.47;5569682;32;34372;-73
2022/11/15 16:16:35;;;;;;;;;;;;;;;6.54;100.00;100242.28;5570236;32;35270;-73
2022/11/15 16:19:40;;;;;;;;;;;;;;;6.53;100.00;100239.81;5570542;32;35096;-73
2022/11/15 16:22:46;;;;;;;;;;;;;;;6.56;100.00;100242.16;5570631;32;34874;-73
2022/11/15 16:25:53;;;;;;;;;;;;;;;6.46;100.00;100241.34;5569759;32;35073;-73
2022/11/15 16:28:59;;;;;;;;;;;;;;;6.53;100.00;100237.19;5569265;31;34724;-74
2022/11/15 16:32:04;;;;;;;;;;;;;;;6.57;100.00;100246.44;5570467;32;34323;-73
2022/11/15 16:35:13;;;;;;;;;;;;;;;6.57;100.00;100250.87;5569365;32;34883;-74
2022/11/15 16:38:17;;;;;;;;;;;;;;;6.50;100.00;100253.25;5556223;32;34113;-74
2022/11/15 16:41:20;;;;;;;;;;;;;;;6.53;100.00;100243.25;5569908;32;35259;-74
2022/11/15 16:44:24;;;;;;;;;;;;;;;6.49;100.00;100230.50;5570296;32;34682;-74
2022/11/15 16:47:28;;;;;;;;;;;;;;;6.48;100.00;100231.50;5569651;32;34796;-73
2022/11/15 16:50:40;;;;;;;;;;;;;;;6.58;100.00;100228.84;5569029;32;34536;-73
2022/11/15 16:53:43;;;;;;;;;;;;;;;6.61;100.00;100229.38;5569606;32;34671;-74
2022/11/15 16:56:47;;;;;;;;;;;;;;;6.55;100.00;100227.31;5569704;32;34589;-73
2022/11/15 16:59:50;;;;;;;;;;;;;;;6.58;100.00;100220.94;5569798;32;34117;-73
2022/11/15 17:02:54;;;;;;;;;;;;;;;6.62;100.00;100225.75;5569679;32;34760;-73